Rees, Illinois
Current Conditions -  °F | °C
As of 8:35 PM on Tuesday 21 Oct 2014 (Local Time) from KIJX Reporting Station
Clear Clear  
Wind Chill: 46°   Ceiling: Unl
Heat Index: 48°   Visibility: 10mi
Dew Point: 39°   Wind: 6mph
Humidity: 71%   Direction: 60°ENE
Pressure: 30.19"   Gusts: NA
Location:  39.5952°N, 90.058°W
Report Text: KIJX 220135Z AUTO 06005KT 10SM CLR 09/04 A3019 RMK AO2 T00910040
Loading
Personal Weather Stations






























Interactive Weather Map
Tropical Storm Tracking
New forecast layout! Learn more

10-Day Weather Forecast

Advertisements
Track Severe Weather on mobile